Time;durP1;ratioP1;P1;durP2;ratioP2;P2;SDS_P1;SDS_P2;PMS_P1;PMS_P2;Temp;Humidity;BMP_temperature;BMP_pressure;BME280_temperature;BME280_humidity;BME280_pressure;Samples;Min_cycle;Max_cycle;Signal;HPM_P1;HPM_P2
2021/10/21 00:00:25;;;;;;;5.60;4.80;;;16.10;99.90;;;;;;5024167;28;20208;-60
2021/10/21 00:02:51;;;;;;;5.37;4.87;;;16.10;99.90;;;;;;5025462;28;20276;-60
2021/10/21 00:05:16;;;;;;;5.60;4.57;;;16.00;99.90;;;;;;5006942;28;20329;-60
2021/10/21 00:07:42;;;;;;;5.20;4.40;;;16.00;99.90;;;;;;5023288;28;20611;-60
2021/10/21 00:10:09;;;;;;;6.00;5.20;;;16.00;99.90;;;;;;5026772;28;20254;-60
2021/10/21 00:12:38;;;;;;;7.37;5.33;;;16.10;99.90;;;;;;5022918;28;20616;-60
2021/10/21 00:15:06;;;;;;;7.00;5.57;;;16.10;99.90;;;;;;5009957;28;20472;-60
2021/10/21 00:17:31;;;;;;;6.13;4.80;;;16.00;99.90;;;;;;5022868;28;20416;-60
2021/10/21 00:19:57;;;;;;;5.17;4.67;;;16.00;99.90;;;;;;5005112;28;20504;-60
2021/10/21 00:22:23;;;;;;;5.10;4.50;;;16.10;99.90;;;;;;5025263;28;20185;-60
2021/10/21 00:24:48;;;;;;;8.33;5.30;;;16.00;99.90;;;;;;5026116;28;20238;-60
2021/10/21 00:27:14;;;;;;;7.43;4.80;;;16.00;99.90;;;;;;5023512;28;20198;-60
2021/10/21 00:29:40;;;;;;;5.27;4.70;;;16.00;99.90;;;;;;5024990;28;20605;-60
2021/10/21 00:32:06;;;;;;;5.53;4.30;;;16.00;99.90;;;;;;5024232;28;20471;-60
2021/10/21 00:34:31;;;;;;;4.73;4.07;;;16.10;99.90;;;;;;5019379;28;20687;-60
2021/10/21 00:37:00;;;;;;;6.63;3.80;;;16.20;99.90;;;;;;5024945;28;20212;-60
2021/10/21 00:39:26;;;;;;;4.83;3.80;;;16.20;99.90;;;;;;5010211;28;20189;-60
2021/10/21 00:41:52;;;;;;;4.27;3.50;;;16.20;99.90;;;;;;5010118;28;20776;-60
2021/10/21 00:44:20;;;;;;;7.57;3.97;;;16.30;99.90;;;;;;5007181;28;20210;-60
2021/10/21 00:46:46;;;;;;;4.13;3.73;;;16.20;99.90;;;;;;5023180;28;20427;-60
2021/10/21 00:49:12;;;;;;;3.77;3.47;;;16.20;99.90;;;;;;5022531;28;20494;-60
2021/10/21 00:51:38;;;;;;;9.27;4.00;;;16.20;99.90;;;;;;5022180;28;20745;-60
2021/10/21 00:54:08;;;;;;;3.80;3.33;;;16.40;99.90;;;;;;5007473;28;20626;-60
2021/10/21 00:56:34;;;;;;;3.70;3.20;;;16.40;99.90;;;;;;5021190;28;20435;-60
2021/10/21 00:59:01;;;;;;;3.30;3.00;;;16.40;99.90;;;;;;5021730;28;20562;-60
2021/10/21 01:01:29;;;;;;;5.80;3.63;;;16.40;99.90;;;;;;5000914;28;20459;-60
2021/10/21 01:03:54;;;;;;;4.17;3.77;;;16.50;99.90;;;;;;5020798;28;21130;-60
2021/10/21 01:06:23;;;;;;;4.13;3.50;;;16.50;99.90;;;;;;5022373;28;20541;-60
2021/10/21 01:08:52;;;;;;;4.27;3.87;;;16.50;99.90;;;;;;5020810;28;20184;-60
2021/10/21 01:11:18;;;;;;;4.57;4.00;;;16.50;99.90;;;;;;5003598;28;21034;-60
2021/10/21 01:13:44;;;;;;;5.60;4.27;;;16.40;99.90;;;;;;5024523;28;20770;-60
2021/10/21 01:16:13;;;;;;;4.80;4.27;;;16.40;99.90;;;;;;5021518;28;20476;-60
2021/10/21 01:18:41;;;;;;;4.93;4.03;;;16.30;99.90;;;;;;5022799;28;20212;-60
2021/10/21 01:21:08;;;;;;;4.70;4.20;;;16.40;99.90;;;;;;5019903;28;21062;-60
2021/10/21 01:23:35;;;;;;;4.07;3.67;;;16.40;99.90;;;;;;5022203;28;20482;-59
2021/10/21 01:26:03;;;;;;;4.80;3.93;;;16.40;99.90;;;;;;4995534;28;20451;-60
2021/10/21 01:28:29;;;;;;;4.97;4.47;;;16.40;99.90;;;;;;5016875;28;20443;-60
2021/10/21 01:30:54;;;;;;;4.87;4.37;;;16.50;99.90;;;;;;5019642;28;20497;-59
2021/10/21 01:33:20;;;;;;;5.67;4.63;;;16.50;99.90;;;;;;5021468;28;20810;-60
2021/10/21 01:35:46;;;;;;;6.07;4.60;;;16.60;99.90;;;;;;5022012;28;20405;-59
2021/10/21 01:38:12;;;;;;;5.13;4.63;;;16.60;99.90;;;;;;5020812;28;20227;-59
2021/10/21 01:40:37;;;;;;;4.60;4.10;;;16.60;99.90;;;;;;5019673;28;20291;-59
2021/10/21 01:43:04;;;;;;;5.43;4.40;;;16.70;99.90;;;;;;5023917;28;20200;-59
2021/10/21 01:45:32;;;;;;;5.93;4.20;;;16.70;99.90;;;;;;5021858;28;20559;-60
2021/10/21 01:47:59;;;;;;;4.60;3.47;;;16.70;99.90;;;;;;5019727;28;20474;-59
2021/10/21 01:50:27;;;;;;;3.37;3.00;;;16.70;99.90;;;;;;5020210;28;20547;-60
2021/10/21 01:52:53;;;;;;;3.83;3.40;;;16.70;99.90;;;;;;5021518;28;20462;-60
2021/10/21 01:55:19;;;;;;;3.73;3.03;;;16.70;99.90;;;;;;5021182;28;20450;-61
2021/10/21 01:57:46;;;;;;;3.07;2.77;;;16.80;99.90;;;;;;5019565;28;20612;-60
2021/10/21 02:00:14;;;;;;;3.57;2.77;;;16.80;99.90;;;;;;5021009;28;20480;-60
2021/10/21 02:02:42;;;;;;;3.07;2.13;;;16.80;99.90;;;;;;5024111;28;20535;-60
2021/10/21 02:05:08;;;;;;;3.47;3.00;;;16.80;99.90;;;;;;5020162;28;21150;-60
2021/10/21 02:07:34;;;;;;;2.77;2.20;;;16.80;99.90;;;;;;5020547;28;20443;-60
2021/10/21 02:10:01;;;;;;;2.40;2.20;;;16.90;99.90;;;;;;5020633;28;20426;-60
2021/10/21 02:12:26;;;;;;;3.37;2.57;;;17.00;99.90;;;;;;5018856;28;20462;-60
2021/10/21 02:14:52;;;;;;;2.13;1.80;;;17.00;99.90;;;;;;5017996;28;20514;-60
2021/10/21 02:17:22;;;;;;;3.50;2.20;;;17.00;99.90;;;;;;5022345;28;20192;-60
2021/10/21 02:19:48;;;;;;;2.30;1.90;;;17.00;99.90;;;;;;5021200;28;20603;-59
2021/10/21 02:22:14;;;;;;;2.53;2.33;;;17.00;99.90;;;;;;5020885;28;20822;-59
2021/10/21 02:24:39;;;;;;;2.73;2.53;;;17.10;99.90;;;;;;5017791;28;20447;-59
2021/10/21 02:27:05;;;;;;;2.67;2.17;;;17.10;99.90;;;;;;5021269;28;20246;-59
2021/10/21 02:29:31;;;;;;;3.03;2.23;;;17.00;99.90;;;;;;5022581;28;20538;-59
2021/10/21 02:31:56;;;;;;;3.70;2.50;;;17.00;99.90;;;;;;5004878;28;20218;-60
2021/10/21 02:34:22;;;;;;;2.90;2.17;;;16.80;99.90;;;;;;5019117;28;20722;-60
2021/10/21 02:36:49;;;;;;;2.60;2.40;;;16.70;99.90;;;;;;5021717;28;20223;-60
2021/10/21 02:39:15;;;;;;;3.60;3.00;;;16.50;99.90;;;;;;5001093;28;20579;-60
2021/10/21 02:41:41;;;;;;;2.90;2.60;;;16.50;99.90;;;;;;5021899;28;20487;-60
2021/10/21 02:44:06;;;;;;;3.07;2.60;;;16.50;99.90;;;;;;5020687;28;20243;-60
2021/10/21 02:46:32;;;;;;;2.93;2.63;;;16.50;99.90;;;;;;5020502;28;20638;-60
2021/10/21 02:48:57;;;;;;;4.47;3.30;;;16.50;99.90;;;;;;5021212;28;20863;-60
2021/10/21 02:51:23;;;;;;;2.97;2.67;;;16.50;99.90;;;;;;5023014;28;20670;-60
2021/10/21 02:53:49;;;;;;;2.67;2.47;;;16.60;99.90;;;;;;5019243;28;20244;-60
2021/10/21 02:56:15;;;;;;;2.87;2.57;;;16.60;99.90;;;;;;5022182;28;20280;-60
2021/10/21 02:58:40;;;;;;;4.03;2.40;;;16.70;99.90;;;;;;5024261;28;20196;-60
2021/10/21 03:01:06;;;;;;;2.67;2.37;;;16.80;99.90;;;;;;5028120;28;20447;-60
2021/10/21 03:03:32;;;;;;;3.10;2.40;;;16.80;99.90;;;;;;5022609;28;20275;-60
2021/10/21 03:05:57;;;;;;;2.30;2.10;;;16.80;99.90;;;;;;5022619;28;20960;-60
2021/10/21 03:08:23;;;;;;;3.07;2.47;;;16.80;99.90;;;;;;5023876;28;20181;-60
2021/10/21 03:10:49;;;;;;;2.80;2.40;;;16.80;99.90;;;;;;5023680;28;20196;-60
2021/10/21 03:13:15;;;;;;;3.30;2.77;;;16.80;99.90;;;;;;5024363;28;20294;-60
2021/10/21 03:15:41;;;;;;;3.50;2.20;;;16.80;99.90;;;;;;5025010;28;20181;-61
2021/10/21 03:18:06;;;;;;;1.73;1.60;;;16.80;99.90;;;;;;5024666;28;20447;-61
2021/10/21 03:20:34;;;;;;;5.30;1.87;;;16.80;99.90;;;;;;5021866;28;20208;-61
2021/10/21 03:23:00;;;;;;;1.73;1.50;;;16.80;99.90;;;;;;5022150;28;20215;-60
2021/10/21 03:25:27;;;;;;;2.90;1.73;;;16.80;99.90;;;;;;5012914;28;20501;-60
2021/10/21 03:27:53;;;;;;;4.53;1.70;;;16.80;99.90;;;;;;5008559;28;20457;-60
2021/10/21 03:30:19;;;;;;;1.60;1.37;;;16.80;99.90;;;;;;5023736;28;20888;-61
2021/10/21 03:32:45;;;;;;;1.57;1.20;;;16.80;99.90;;;;;;5026704;28;20674;-60
2021/10/21 03:35:10;;;;;;;1.57;1.30;;;16.80;99.90;;;;;;5024015;28;20181;-60
2021/10/21 03:37:37;;;;;;;2.97;1.47;;;16.80;99.90;;;;;;5025105;28;20511;-60
2021/10/21 03:40:05;;;;;;;5.23;1.27;;;16.70;99.90;;;;;;5024115;28;20188;-60
2021/10/21 03:42:30;;;;;;;2.30;1.50;;;16.70;99.90;;;;;;5023360;28;20436;-60
2021/10/21 03:44:57;;;;;;;3.77;1.43;;;16.70;99.90;;;;;;5023564;28;20687;-60
2021/10/21 03:47:27;;;;;;;1.80;1.30;;;16.60;99.90;;;;;;5008255;28;20447;-60
2021/10/21 03:49:53;;;;;;;8.03;1.60;;;16.60;99.90;;;;;;5021251;28;21140;-60
2021/10/21 03:52:19;;;;;;;4.13;1.30;;;16.60;99.90;;;;;;5023452;28;20510;-60
2021/10/21 03:54:48;;;;;;;3.40;1.60;;;16.60;99.90;;;;;;5023736;28;20557;-60
2021/10/21 03:57:15;;;;;;;3.73;1.57;;;16.50;99.90;;;;;;5022331;28;20434;-60
2021/10/21 03:59:41;;;;;;;2.13;1.30;;;16.40;99.90;;;;;;5022747;28;20802;-60
2021/10/21 04:02:07;;;;;;;17.23;1.93;;;16.40;99.90;;;;;;5022801;28;20460;-60
2021/10/21 04:04:33;;;;;;;4.60;2.00;;;16.30;99.90;;;;;;5025326;28;20427;-60
2021/10/21 04:07:00;;;;;;;6.63;1.80;;;16.20;99.90;;;;;;5006354;28;21027;-60
2021/10/21 04:09:27;;;;;;;2.70;1.53;;;16.10;99.90;;;;;;5009177;28;20996;-60
2021/10/21 04:11:55;;;;;;;4.67;1.93;;;16.00;99.90;;;;;;5024540;28;20446;-59
2021/10/21 04:14:20;;;;;;;10.67;1.70;;;16.00;99.90;;;;;;5026479;28;20467;-59
2021/10/21 04:16:46;;;;;;;7.00;2.37;;;15.90;99.90;;;;;;5026209;28;20985;-59
2021/10/21 04:19:12;;;;;;;10.97;2.07;;;15.80;99.90;;;;;;5006205;28;20279;-59
2021/10/21 04:21:38;;;;;;;4.90;2.07;;;15.80;99.90;;;;;;5025862;28;20258;-59
2021/10/21 04:24:04;;;;;;;5.87;1.70;;;15.70;99.90;;;;;;5024025;28;20659;-59
2021/10/21 04:26:29;;;;;;;7.53;2.33;;;15.80;99.90;;;;;;5023403;28;20193;-59
2021/10/21 04:28:55;;;;;;;4.53;2.63;;;15.80;99.90;;;;;;5027533;28;20459;-60
2021/10/21 04:31:20;;;;;;;3.50;1.83;;;15.70;99.90;;;;;;5023640;28;20224;-60
2021/10/21 04:33:46;;;;;;;6.40;1.90;;;15.70;99.90;;;;;;5021059;28;20209;-61
2021/10/21 04:36:12;;;;;;;3.53;1.50;;;15.60;99.90;;;;;;5020080;28;20176;-62
2021/10/21 04:38:38;;;;;;;6.97;1.73;;;15.70;99.90;;;;;;5004484;28;20192;-62
2021/10/21 04:41:03;;;;;;;6.23;1.70;;;15.60;99.90;;;;;;5012182;28;20212;-63
2021/10/21 04:43:32;;;;;;;5.10;1.60;;;15.60;99.90;;;;;;5022299;28;20283;-63
2021/10/21 04:45:57;;;;;;;3.50;1.90;;;15.60;99.90;;;;;;5022451;28;20188;-62
2021/10/21 04:48:23;;;;;;;4.63;1.83;;;15.60;99.90;;;;;;5023500;28;20490;-62
2021/10/21 04:50:49;;;;;;;3.80;1.80;;;15.50;99.90;;;;;;5024575;28;20208;-62
2021/10/21 04:53:15;;;;;;;7.90;3.17;;;15.60;99.90;;;;;;5022198;28;20625;-63
2021/10/21 04:55:40;;;;;;;4.17;2.03;;;15.50;99.90;;;;;;5025634;28;20432;-62
2021/10/21 04:58:06;;;;;;;15.97;2.80;;;15.50;99.90;;;;;;5020618;28;20649;-62
2021/10/21 05:00:34;;;;;;;8.40;2.37;;;15.50;99.90;;;;;;5023553;28;20204;-63
2021/10/21 05:03:11;;;;;;;7.63;1.93;;;15.50;99.90;;;;;;5025030;28;20874;-63
2021/10/21 05:05:37;;;;;;;7.07;2.07;;;15.50;99.90;;;;;;5022313;28;20430;-63
2021/10/21 05:08:03;;;;;;;4.43;2.50;;;15.40;99.90;;;;;;5024278;28;20447;-62
2021/10/21 05:10:30;;;;;;;4.07;1.90;;;15.50;99.90;;;;;;5023728;28;20546;-62
2021/10/21 05:12:55;;;;;;;4.20;1.57;;;15.50;99.90;;;;;;5025300;28;20887;-62
2021/10/21 05:15:23;;;;;;;4.53;2.27;;;15.50;99.90;;;;;;5019948;28;21122;-62
2021/10/21 05:17:49;;;;;;;5.27;1.80;;;15.50;99.90;;;;;;5024270;28;20426;-62
2021/10/21 05:20:15;;;;;;;8.63;2.20;;;15.50;99.90;;;;;;5022266;28;20454;-63
2021/10/21 05:22:41;;;;;;;10.73;2.90;;;15.50;99.90;;;;;;5017429;28;20490;-62
2021/10/21 05:25:08;;;;;;;7.27;2.30;;;15.50;99.90;;;;;;5019431;28;20185;-62
2021/10/21 05:27:35;;;;;;;13.30;2.83;;;15.50;99.90;;;;;;5018028;28;20470;-62
2021/10/21 05:30:02;;;;;;;9.20;2.03;;;15.50;99.90;;;;;;5017511;28;20511;-63
2021/10/21 05:32:27;;;;;;;6.93;2.13;;;15.50;99.90;;;;;;5018348;28;20435;-62
2021/10/21 05:34:53;;;;;;;3.27;2.23;;;15.50;99.90;;;;;;5016971;28;20474;-64
2021/10/21 05:37:18;;;;;;;9.97;3.07;;;15.50;99.90;;;;;;5014908;28;20274;-62
2021/10/21 05:39:44;;;;;;;3.13;1.60;;;15.50;99.90;;;;;;5019498;28;20180;-62
2021/10/21 05:42:10;;;;;;;9.17;2.00;;;15.50;99.90;;;;;;5020975;28;20254;-62
2021/10/21 05:44:35;;;;;;;5.40;2.00;;;15.50;99.90;;;;;;5018510;28;20184;-62
2021/10/21 05:47:04;;;;;;;4.73;1.90;;;15.50;99.90;;;;;;5018372;28;20285;-63
2021/10/21 05:49:30;;;;;;;7.70;1.60;;;15.50;99.90;;;;;;5006705;28;20619;-63
2021/10/21 05:51:56;;;;;;;5.70;2.03;;;15.50;99.90;;;;;;5016397;28;21011;-63
2021/10/21 05:54:22;;;;;;;7.47;2.30;;;15.50;99.90;;;;;;5017664;28;20471;-63
2021/10/21 05:56:48;;;;;;;7.93;2.13;;;15.40;99.90;;;;;;5016747;28;20427;-64
2021/10/21 05:59:14;;;;;;;4.30;1.80;;;15.50;99.90;;;;;;5020201;28;20242;-64
2021/10/21 06:01:40;;;;;;;4.50;2.13;;;15.40;99.90;;;;;;5024023;28;20244;-63
2021/10/21 06:04:05;;;;;;;8.03;2.20;;;15.40;99.90;;;;;;5021590;28;20443;-63
2021/10/21 06:06:34;;;;;;;5.97;1.90;;;15.40;99.90;;;;;;5021195;28;20192;-63
2021/10/21 06:09:02;;;;;;;11.80;1.63;;;15.40;99.90;;;;;;5020912;28;20177;-63
2021/10/21 06:11:29;;;;;;;9.30;2.00;;;15.40;99.90;;;;;;5020922;28;20845;-63
2021/10/21 06:13:55;;;;;;;6.43;2.53;;;15.40;99.90;;;;;;5018931;28;20466;-63
2021/10/21 06:16:21;;;;;;;7.60;2.03;;;15.40;99.90;;;;;;5021569;28;20435;-63
2021/10/21 06:18:46;;;;;;;7.13;1.70;;;15.40;99.90;;;;;;5019987;28;20185;-63
2021/10/21 06:21:14;;;;;;;5.87;1.73;;;15.40;99.90;;;;;;5005631;28;21061;-63
2021/10/21 06:23:40;;;;;;;10.07;1.60;;;15.40;99.90;;;;;;5024820;28;20789;-62
2021/10/21 06:26:05;;;;;;;6.13;2.10;;;15.40;99.90;;;;;;5018573;28;20441;-62
2021/10/21 06:28:31;;;;;;;13.00;1.50;;;15.30;99.90;;;;;;5019977;28;20227;-63
2021/10/21 06:30:57;;;;;;;2.83;1.90;;;15.30;99.90;;;;;;5016116;28;20303;-62
2021/10/21 06:33:23;;;;;;;5.00;2.30;;;15.30;99.90;;;;;;5028853;28;20219;-63
2021/10/21 06:35:49;;;;;;;5.63;2.47;;;15.40;99.90;;;;;;5029370;28;20419;-63
2021/10/21 06:38:15;;;;;;;4.00;1.97;;;15.30;99.90;;;;;;5026028;28;20194;-63
2021/10/21 06:40:41;;;;;;;4.80;1.70;;;15.30;99.90;;;;;;5026752;28;20572;-63
2021/10/21 06:43:07;;;;;;;33.07;2.30;;;15.30;99.90;;;;;;5024939;28;20431;-63
2021/10/21 06:45:33;;;;;;;2.90;1.50;;;15.30;99.90;;;;;;5025632;28;20196;-63
2021/10/21 06:48:02;;;;;;;7.30;1.90;;;15.20;99.90;;;;;;5027929;28;20493;-63
2021/10/21 06:50:28;;;;;;;5.30;1.80;;;15.30;99.90;;;;;;5025726;28;20976;-62
2021/10/21 06:52:54;;;;;;;2.50;1.43;;;15.20;99.90;;;;;;5024889;28;20545;-63
2021/10/21 06:55:20;;;;;;;4.87;1.77;;;15.20;99.90;;;;;;5027615;28;20179;-63
2021/10/21 06:57:46;;;;;;;4.07;1.60;;;15.20;99.90;;;;;;5025204;28;20212;-63
2021/10/21 07:00:13;;;;;;;7.87;2.17;;;15.20;99.90;;;;;;5027094;28;20529;-63
2021/10/21 07:02:39;;;;;;;3.00;1.70;;;15.20;99.90;;;;;;5025716;28;20438;-63
2021/10/21 07:05:05;;;;;;;7.40;1.60;;;15.10;99.90;;;;;;5026049;28;20530;-62
2021/10/21 07:07:31;;;;;;;4.03;1.90;;;15.10;99.90;;;;;;5008839;28;20189;-62
2021/10/21 07:10:00;;;;;;;2.73;1.70;;;15.10;99.90;;;;;;5028994;28;20438;-62
2021/10/21 07:12:26;;;;;;;4.17;1.60;;;15.00;99.90;;;;;;5010709;28;20214;-61
2021/10/21 07:14:52;;;;;;;2.20;1.30;;;14.90;99.90;;;;;;5028493;28;20471;-62
2021/10/21 07:17:18;;;;;;;7.13;1.60;;;14.90;99.90;;;;;;5025643;28;20956;-62
2021/10/21 07:19:46;;;;;;;3.60;2.17;;;14.90;99.90;;;;;;5025736;28;20192;-62
2021/10/21 07:22:12;;;;;;;8.80;1.60;;;14.80;99.90;;;;;;5026915;28;20215;-62
2021/10/21 07:24:39;;;;;;;3.83;1.60;;;14.80;99.90;;;;;;5025346;28;20458;-62
2021/10/21 07:27:05;;;;;;;1.67;1.50;;;14.80;99.90;;;;;;5014469;28;20246;-62
2021/10/21 07:29:31;;;;;;;2.80;1.17;;;14.80;99.90;;;;;;4996956;28;20818;-62
2021/10/21 07:31:56;;;;;;;3.30;1.57;;;14.80;99.90;;;;;;5026207;28;20477;-62
2021/10/21 07:34:22;;;;;;;2.03;1.83;;;14.70;99.90;;;;;;5027595;28;20265;-61
2021/10/21 07:36:48;;;;;;;2.90;1.63;;;14.70;99.90;;;;;;5024640;28;20189;-61
2021/10/21 07:39:14;;;;;;;3.10;1.70;;;14.70;99.90;;;;;;5025577;28;20271;-61
2021/10/21 07:41:40;;;;;;;5.57;1.40;;;14.60;99.90;;;;;;5027720;28;20203;-62
2021/10/21 07:44:06;;;;;;;5.73;1.47;;;14.60;99.90;;;;;;5025206;28;20810;-62
2021/10/21 07:46:35;;;;;;;3.30;1.30;;;14.60;99.90;;;;;;4997603;28;20192;-62
2021/10/21 07:49:02;;;;;;;2.13;1.30;;;14.50;99.90;;;;;;5026798;28;20941;-62
2021/10/21 07:51:31;;;;;;;4.90;1.50;;;14.50;99.90;;;;;;5025920;28;20520;-62
2021/10/21 07:53:58;;;;;;;2.43;1.83;;;14.50;99.90;;;;;;5022249;28;20955;-62
2021/10/21 07:56:24;;;;;;;5.07;1.30;;;14.40;99.90;;;;;;5024596;28;20521;-62
2021/10/21 07:58:50;;;;;;;3.80;1.60;;;14.40;99.90;;;;;;5025483;28;20443;-62
2021/10/21 08:01:16;;;;;;;3.27;1.60;;;14.30;99.90;;;;;;5026725;28;20454;-61
2021/10/21 08:03:41;;;;;;;1.60;1.20;;;14.30;99.90;;;;;;5009155;28;20196;-61
2021/10/21 08:06:07;;;;;;;7.80;2.60;;;14.30;99.90;;;;;;5026028;28;20432;-62
2021/10/21 08:08:33;;;;;;;3.63;1.53;;;14.20;99.90;;;;;;5024726;28;20221;-62
2021/10/21 08:10:59;;;;;;;1.30;1.10;;;14.10;99.90;;;;;;5027126;28;20736;-62
2021/10/21 08:13:25;;;;;;;3.33;2.23;;;14.10;99.90;;;;;;5009474;28;20204;-62
2021/10/21 08:15:51;;;;;;;1.87;1.20;;;14.10;99.90;;;;;;5023551;28;20470;-62
2021/10/21 08:18:17;;;;;;;4.60;1.73;;;14.00;99.90;;;;;;5023475;28;20484;-62
2021/10/21 08:20:44;;;;;;;3.10;1.93;;;14.00;99.90;;;;;;5024078;28;20992;-62
2021/10/21 08:23:11;;;;;;;3.33;1.40;;;14.00;99.90;;;;;;5023855;28;20443;-62
2021/10/21 08:25:38;;;;;;;1.97;1.40;;;13.90;99.90;;;;;;5007685;28;20589;-62
2021/10/21 08:28:04;;;;;;;3.83;1.37;;;13.90;99.90;;;;;;5026337;28;20973;-62
2021/10/21 08:30:33;;;;;;;4.07;1.37;;;13.90;99.90;;;;;;5023773;28;20857;-63
2021/10/21 08:32:59;;;;;;;1.60;1.10;;;13.90;99.90;;;;;;5025904;28;21103;-63
2021/10/21 08:35:29;;;;;;;2.00;1.20;;;13.80;99.90;;;;;;5025718;28;20415;-63
2021/10/21 08:38:02;;;;;;;2.53;1.20;;;13.80;99.90;;;;;;5025735;28;20427;-63
2021/10/21 08:40:31;;;;;;;1.40;1.10;;;13.80;99.90;;;;;;5025903;28;20450;-63
2021/10/21 08:42:58;;;;;;;2.73;1.27;;;13.80;99.90;;;;;;5007109;28;20458;-62
2021/10/21 08:45:27;;;;;;;6.40;1.20;;;13.70;99.90;;;;;;5003930;28;20426;-62
2021/10/21 08:47:57;;;;;;;2.70;1.40;;;13.70;99.90;;;;;;5027031;28;20419;-62
2021/10/21 08:50:24;;;;;;;2.33;1.70;;;13.60;99.90;;;;;;5004047;28;20607;-62
2021/10/21 08:52:50;;;;;;;5.90;1.30;;;13.60;99.90;;;;;;5025356;28;20439;-63
2021/10/21 08:55:16;;;;;;;4.30;1.73;;;13.60;99.90;;;;;;5025401;28;20905;-62
2021/10/21 08:57:43;;;;;;;1.50;1.10;;;13.60;99.90;;;;;;5024711;28;20562;-62
2021/10/21 09:00:11;;;;;;;1.53;1.43;;;13.60;99.90;;;;;;5006084;28;20631;-62
2021/10/21 09:02:55;;;;;;;2.03;1.20;;;13.60;99.90;;;;;;5026740;28;20419;-62
2021/10/21 09:08:02;;;;;;;2.03;1.70;;;13.60;99.90;;;;;;5024280;28;20436;-62
2021/10/21 09:10:29;;;;;;;1.20;1.00;;;13.70;99.90;;;;;;5024459;28;20954;-62
2021/10/21 09:12:55;;;;;;;2.53;1.40;;;13.70;99.90;;;;;;5023199;28;20442;-62
2021/10/21 09:15:26;;;;;;;2.73;1.50;;;13.60;99.90;;;;;;5024213;28;20486;-62
2021/10/21 09:17:56;;;;;;;5.27;2.23;;;13.60;99.90;;;;;;5024710;28;20566;-63
2021/10/21 09:20:26;;;;;;;3.43;1.83;;;13.60;99.90;;;;;;5025013;28;20463;-62
2021/10/21 09:22:55;;;;;;;1.63;1.40;;;13.60;99.90;;;;;;5013135;28;20929;-62
2021/10/21 09:25:24;;;;;;;3.17;1.43;;;13.60;99.90;;;;;;4994826;28;20515;-62
2021/10/21 09:27:50;;;;;;;3.43;1.30;;;13.60;99.90;;;;;;5007338;28;20434;-62
2021/10/21 09:30:23;;;;;;;3.10;1.20;;;13.70;99.90;;;;;;5026112;28;20784;-62
2021/10/21 09:32:49;;;;;;;2.17;1.30;;;13.80;99.90;;;;;;5023674;28;20439;-62
2021/10/21 09:35:18;;;;;;;1.97;1.20;;;13.70;99.90;;;;;;5020914;28;20432;-62
2021/10/21 09:37:46;;;;;;;2.13;1.37;;;13.60;99.90;;;;;;5024818;28;20412;-62
2021/10/21 09:40:30;;;;;;;1.87;1.20;;;13.60;99.90;;;;;;5020974;28;20451;-62
2021/10/21 09:43:07;;;;;;;3.00;1.33;;;13.60;99.90;;;;;;5005425;28;20533;-62
2021/10/21 09:45:37;;;;;;;1.97;1.20;;;13.60;99.90;;;;;;5025953;28;20481;-61
2021/10/21 09:48:06;;;;;;;1.63;1.20;;;13.70;99.90;;;;;;5022709;28;20445;-63
2021/10/21 09:50:40;;;;;;;3.33;1.93;;;13.70;99.90;;;;;;5023612;28;20861;-63
2021/10/21 09:53:14;;;;;;;1.50;1.23;;;13.60;99.90;;;;;;5005803;28;20457;-63
2021/10/21 09:55:41;;;;;;;2.80;1.50;;;13.70;99.90;;;;;;5006221;28;20520;-63
2021/10/21 09:58:11;;;;;;;1.60;1.50;;;13.70;99.90;;;;;;5020834;28;20447;-62
2021/10/21 10:00:40;;;;;;;1.60;1.30;;;13.60;99.90;;;;;;5022750;28;20474;-61
2021/10/21 10:03:26;;;;;;;5.03;1.67;;;13.70;99.90;;;;;;5024550;28;20451;-63
2021/10/21 10:05:54;;;;;;;3.60;2.00;;;13.70;99.90;;;;;;5012265;28;20443;-63
2021/10/21 10:08:21;;;;;;;2.70;1.40;;;13.70;99.90;;;;;;5026879;28;20446;-63
2021/10/21 10:10:52;;;;;;;3.13;1.53;;;13.80;99.90;;;;;;5026384;28;21486;-62
2021/10/21 10:13:19;;;;;;;5.77;2.37;;;13.80;99.90;;;;;;5026457;28;20466;-62
2021/10/21 10:15:47;;;;;;;4.90;1.67;;;13.80;99.90;;;;;;5010219;28;20435;-62
2021/10/21 10:18:28;;;;;;;5.30;1.70;;;13.70;99.90;;;;;;5010793;28;20429;-62
2021/10/21 10:21:00;;;;;;;4.30;1.50;;;13.90;99.90;;;;;;5029605;28;20439;-63
2021/10/21 10:23:27;;;;;;;3.67;1.53;;;13.90;99.90;;;;;;5023488;28;20451;-62
2021/10/21 10:25:53;;;;;;;2.40;1.40;;;14.00;99.90;;;;;;5025716;28;20447;-62
2021/10/21 10:28:20;;;;;;;4.43;1.60;;;14.00;99.90;;;;;;5028203;28;20741;-62
2021/10/21 10:30:52;;;;;;;3.53;1.83;;;14.10;99.90;;;;;;5027204;28;20451;-62
2021/10/21 10:33:38;;;;;;;2.40;1.53;;;14.10;99.90;;;;;;5008800;28;20467;-62
2021/10/21 10:36:23;;;;;;;2.90;1.40;;;14.20;99.90;;;;;;5014035;28;20457;-61
2021/10/21 10:38:53;;;;;;;5.60;1.97;;;14.20;99.90;;;;;;5024647;28;20481;-62
2021/10/21 10:41:41;;;;;;;4.37;1.80;;;14.30;99.90;;;;;;5024118;28;20490;-63
2021/10/21 10:44:36;;;;;;;1.50;1.33;;;14.30;99.90;;;;;;5016554;28;20434;-63
2021/10/21 10:47:09;;;;;;;2.37;1.60;;;14.40;99.90;;;;;;5000370;28;20466;-62
2021/10/21 10:49:40;;;;;;;5.60;1.90;;;14.40;99.90;;;;;;5009039;28;20508;-62
2021/10/21 10:52:17;;;;;;;3.20;1.60;;;14.50;99.90;;;;;;5027332;28;20664;-63
2021/10/21 10:54:52;;;;;;;3.80;1.70;;;14.50;99.90;;;;;;5027772;28;20454;-62
2021/10/21 10:57:23;;;;;;;2.10;1.70;;;14.50;99.90;;;;;;5026248;28;20459;-61
2021/10/21 10:59:49;;;;;;;3.73;1.53;;;14.40;99.90;;;;;;5028108;28;20419;-63
2021/10/21 11:02:25;;;;;;;6.03;1.70;;;14.40;99.90;;;;;;5026634;28;20546;-62
2021/10/21 11:04:53;;;;;;;2.90;1.70;;;14.30;99.90;;;;;;5028816;28;20944;-62
2021/10/21 11:07:23;;;;;;;4.20;1.83;;;14.40;99.90;;;;;;5026975;28;20459;-62
2021/10/21 11:09:50;;;;;;;2.30;1.50;;;14.40;99.90;;;;;;5011004;28;20431;-62
2021/10/21 11:12:24;;;;;;;3.30;1.90;;;14.40;99.90;;;;;;5024211;28;20905;-63
2021/10/21 11:14:56;;;;;;;4.53;1.73;;;14.50;99.90;;;;;;5021829;28;20466;-62
2021/10/21 11:17:44;;;;;;;3.40;1.90;;;14.50;99.90;;;;;;5006889;28;20453;-63
2021/10/21 11:20:42;;;;;;;3.57;1.40;;;14.60;99.90;;;;;;5023556;28;20444;-63
2021/10/21 11:23:28;;;;;;;6.23;1.90;;;14.60;99.90;;;;;;4966842;28;20447;-62
2021/10/21 11:26:02;;;;;;;6.47;2.17;;;14.60;99.90;;;;;;5026996;28;20519;-61
2021/10/21 11:28:29;;;;;;;4.10;2.27;;;14.70;99.90;;;;;;5024842;28;20435;-62
2021/10/21 11:30:59;;;;;;;3.20;1.67;;;14.70;99.90;;;;;;5024110;28;20431;-61
2021/10/21 11:33:26;;;;;;;4.20;2.30;;;14.80;99.90;;;;;;5026912;28;20844;-62
2021/10/21 11:35:53;;;;;;;2.53;1.40;;;14.90;99.90;;;;;;5025320;28;20887;-63
2021/10/21 11:38:20;;;;;;;3.37;1.60;;;15.00;99.90;;;;;;5014298;28;20928;-62
2021/10/21 11:40:58;;;;;;;2.93;1.60;;;15.10;99.90;;;;;;5023463;28;20447;-62
2021/10/21 11:43:36;;;;;;;5.30;2.57;;;15.30;99.90;;;;;;5027140;28;20948;-64
2021/10/21 11:46:05;;;;;;;4.23;1.90;;;15.80;99.90;;;;;;5028608;28;20787;-62
2021/10/21 11:48:33;;;;;;;2.77;1.97;;;15.80;99.90;;;;;;5008620;28;20477;-62
2021/10/21 11:51:02;;;;;;;5.80;1.90;;;16.90;99.90;;;;;;5025732;28;20458;-62
2021/10/21 11:53:28;;;;;;;4.20;1.60;;;17.50;99.90;;;;;;5008947;28;20498;-62
2021/10/21 11:55:57;;;;;;;6.67;1.90;;;18.00;99.90;;;;;;5024930;28;20428;-63
2021/10/21 11:58:26;;;;;;;3.17;1.77;;;17.50;99.90;;;;;;5023151;28;20188;-63
2021/10/21 12:00:55;;;;;;;7.20;2.40;;;17.30;99.90;;;;;;5025340;28;20481;-63
2021/10/21 12:03:35;;;;;;;3.73;2.20;;;18.10;99.90;;;;;;5024825;28;20538;-63
2021/10/21 12:06:01;;;;;;;2.10;1.70;;;19.10;99.90;;;;;;5024720;28;20478;-63
2021/10/21 12:08:27;;;;;;;5.37;1.90;;;19.60;99.90;;;;;;5025799;28;20423;-63
2021/10/21 12:10:56;;;;;;;3.80;1.83;;;19.90;99.90;;;;;;5021772;28;20526;-62
2021/10/21 12:13:30;;;;;;;2.47;1.70;;;20.70;99.50;;;;;;5025305;28;20459;-63
2021/10/21 12:16:03;;;;;;;3.83;1.90;;;21.60;97.10;;;;;;5025060;28;20444;-63
2021/10/21 12:18:32;;;;;;;3.77;1.80;;;22.10;94.20;;;;;;5025096;28;20892;-63
2021/10/21 12:21:01;;;;;;;2.00;1.50;;;22.10;92.30;;;;;;5026496;28;20476;-62
2021/10/21 12:23:35;;;;;;;2.43;1.73;;;22.10;91.50;;;;;;5025516;28;20515;-63
2021/10/21 12:26:09;;;;;;;4.43;2.00;;;22.30;90.50;;;;;;5024363;28;20447;-62
2021/10/21 12:28:41;;;;;;;3.40;1.70;;;22.30;89.60;;;;;;5010377;28;20427;-63
2021/10/21 12:31:18;;;;;;;4.00;2.37;;;21.70;89.40;;;;;;5024503;28;20463;-63
2021/10/21 12:33:59;;;;;;;6.30;2.10;;;22.10;89.40;;;;;;5023328;28;20459;-63
2021/10/21 12:36:50;;;;;;;6.57;2.33;;;22.80;85.30;;;;;;5024103;28;20518;-64
2021/10/21 12:39:22;;;;;;;5.30;2.20;;;21.70;88.50;;;;;;5026254;28;20507;-63
2021/10/21 12:42:03;;;;;;;2.90;1.70;;;22.20;87.50;;;;;;5023736;28;20553;-63
2021/10/21 12:44:37;;;;;;;2.23;1.70;;;21.80;87.10;;;;;;5024215;28;20518;-63
2021/10/21 12:47:25;;;;;;;2.00;1.60;;;21.90;87.30;;;;;;5027588;28;20424;-63
2021/10/21 12:49:59;;;;;;;3.00;1.83;;;21.40;86.80;;;;;;5021201;28;20939;-63
2021/10/21 12:52:26;;;;;;;4.40;2.33;;;21.60;86.50;;;;;;5023342;28;20426;-63